createdAt,value
2019-02-04T00:01:55.800Z,15.97
2019-02-04T00:04:27.436Z,17.10
2019-02-04T00:06:57.299Z,15.53
2019-02-04T00:09:27.248Z,15.57
2019-02-04T00:11:57.129Z,15.23
2019-02-04T00:14:26.997Z,15.07
2019-02-04T00:16:57.055Z,13.57
2019-02-04T00:19:27.023Z,14.40
2019-02-04T00:21:56.920Z,12.97
2019-02-04T00:24:27.367Z,14.27
2019-02-04T00:26:57.764Z,13.17
2019-02-04T00:29:27.609Z,12.30
2019-02-04T00:31:57.492Z,14.07
2019-02-04T00:34:27.813Z,13.43
2019-02-04T00:36:57.772Z,14.67
2019-02-04T00:39:27.549Z,14.03
2019-02-04T00:41:57.447Z,13.40
2019-02-04T00:44:27.393Z,12.10
2019-02-04T00:46:57.367Z,13.17
2019-02-04T00:49:27.251Z,12.30
2019-02-04T00:51:57.427Z,11.60
2019-02-04T00:54:27.299Z,10.90
2019-02-04T00:56:57.262Z,11.13
2019-02-04T00:59:27.959Z,11.40
2019-02-04T01:01:57.921Z,11.37
2019-02-04T01:04:27.805Z,12.20
2019-02-04T01:06:57.866Z,11.50
2019-02-04T01:09:27.793Z,9.50
2019-02-04T01:11:57.686Z,10.77
2019-02-04T01:14:27.809Z,10.20
2019-02-04T01:17:03.520Z,9.60
2019-02-04T01:19:29.319Z,9.47
2019-02-04T01:21:59.216Z,9.70
2019-02-04T01:24:29.067Z,10.70
2019-02-04T01:26:59.119Z,9.70
2019-02-04T01:29:29.005Z,9.20
2019-02-04T01:31:59.005Z,10.93
2019-02-04T01:34:28.880Z,9.13
2019-02-04T01:36:58.827Z,7.73
2019-02-04T01:39:28.707Z,9.67
2019-02-04T01:41:58.544Z,9.30
2019-02-04T01:44:28.430Z,9.20
2019-02-04T01:46:58.484Z,10.07
2019-02-04T01:49:28.435Z,10.03
2019-02-04T01:51:58.391Z,9.73
2019-02-04T01:54:28.378Z,8.50
2019-02-04T01:56:58.233Z,8.67
2019-02-04T01:59:28.555Z,8.73
2019-02-04T02:01:58.413Z,9.03
2019-02-04T02:04:28.295Z,9.70
2019-02-04T02:06:58.344Z,9.53
2019-02-04T02:09:28.226Z,9.03
2019-02-04T02:11:58.303Z,9.00
2019-02-04T02:14:28.219Z,8.10
2019-02-04T02:16:58.144Z,8.93
2019-02-04T02:19:28.588Z,8.57
2019-02-04T02:21:58.467Z,10.67
2019-02-04T02:24:28.449Z,8.90
2019-02-04T02:26:58.774Z,8.50
2019-02-04T02:29:28.640Z,8.67
2019-02-04T02:31:59.674Z,9.70
2019-02-04T02:34:29.589Z,10.50
2019-02-04T02:36:59.465Z,9.03
2019-02-04T02:39:29.430Z,10.30
2019-02-04T02:41:59.309Z,9.57
2019-02-04T02:44:29.195Z,10.17
2019-02-04T02:46:59.056Z,9.10
2019-02-04T02:49:28.990Z,9.20
2019-02-04T02:51:58.841Z,8.43
2019-02-04T02:54:29.231Z,10.37
2019-02-04T02:56:59.089Z,10.70
2019-02-04T02:59:29.095Z,10.40
2019-02-04T03:01:58.960Z,9.07
2019-02-04T03:04:28.844Z,12.13
2019-02-04T03:06:58.730Z,11.10
2019-02-04T03:09:28.604Z,11.10
2019-02-04T03:11:58.553Z,10.40
2019-02-04T03:14:28.470Z,12.90
2019-02-04T03:16:58.311Z,11.77
2019-02-04T03:19:28.179Z,13.77
2019-02-04T03:21:58.346Z,11.77
2019-02-04T03:24:28.225Z,12.10
2019-02-04T03:26:58.118Z,11.30
2019-02-04T03:29:27.991Z,11.53
2019-02-04T03:31:57.944Z,13.83
2019-02-04T03:34:27.855Z,12.50
2019-02-04T03:36:57.733Z,13.10
2019-02-04T03:39:27.620Z,12.70
2019-02-04T03:41:57.602Z,13.73
2019-02-04T03:44:27.557Z,12.57
2019-02-04T03:46:57.500Z,12.30
2019-02-04T03:49:27.836Z,12.97
2019-02-04T03:51:57.802Z,13.27
2019-02-04T03:54:27.721Z,12.90
2019-02-04T03:56:57.607Z,12.67
2019-02-04T03:59:27.626Z,14.67
2019-02-04T04:01:57.623Z,13.43
2019-02-04T04:04:28.712Z,12.97
2019-02-04T04:07:01.631Z,13.17
2019-02-04T04:09:31.617Z,14.40
2019-02-04T04:12:01.516Z,13.20
2019-02-04T04:14:31.473Z,13.83
2019-02-04T04:17:01.450Z,11.13
2019-02-04T04:19:31.370Z,14.47
2019-02-04T04:22:01.262Z,13.53
2019-02-04T04:24:31.511Z,15.60
2019-02-04T04:27:01.550Z,13.00
2019-02-04T04:29:31.820Z,15.43
2019-02-04T04:32:01.701Z,14.87
2019-02-04T04:34:31.638Z,13.60
2019-02-04T04:37:01.529Z,14.23
2019-02-04T04:39:31.375Z,13.90
2019-02-04T04:42:01.278Z,12.90
2019-02-04T04:44:31.135Z,13.83
2019-02-04T04:47:01.005Z,14.77
2019-02-04T04:49:30.987Z,14.90
2019-02-04T04:52:00.853Z,14.10
2019-02-04T04:54:30.909Z,15.20
2019-02-04T04:57:01.284Z,13.90
2019-02-04T04:59:31.128Z,16.90
2019-02-04T05:02:01.060Z,16.40
2019-02-04T05:04:30.930Z,16.53
2019-02-04T05:07:01.527Z,15.77
2019-02-04T05:09:31.455Z,16.10
2019-02-04T05:12:01.535Z,15.40
2019-02-04T05:14:31.546Z,15.40
2019-02-04T05:17:01.440Z,14.80
2019-02-04T05:19:31.402Z,17.10
2019-02-04T05:22:01.705Z,15.27
2019-02-04T05:24:32.036Z,16.10
2019-02-04T05:27:02.018Z,15.13
2019-02-04T05:29:31.996Z,14.83
2019-02-04T05:32:01.905Z,16.47
2019-02-04T05:34:31.753Z,16.47
2019-02-04T05:37:02.199Z,14.80
2019-02-04T05:39:32.200Z,13.60
2019-02-04T05:42:02.311Z,15.07
2019-02-04T05:44:32.176Z,14.93
2019-02-04T05:47:02.068Z,16.13
2019-02-04T05:49:31.965Z,17.10
2019-02-04T05:52:02.239Z,15.50
2019-02-04T05:54:32.171Z,14.40
2019-02-04T05:57:02.055Z,14.20
2019-02-04T05:59:31.912Z,13.50
2019-02-04T06:02:02.105Z,13.90
2019-02-04T06:04:32.428Z,13.67
2019-02-04T06:07:02.865Z,15.00
2019-02-04T06:09:32.726Z,14.40
2019-02-04T06:12:02.709Z,15.73
2019-02-04T06:14:32.649Z,16.20
2019-02-04T06:17:02.588Z,15.43
2019-02-04T06:19:32.486Z,16.60
2019-02-04T06:22:02.342Z,14.13
2019-02-04T06:24:35.060Z,15.53
2019-02-04T06:27:04.932Z,16.27
2019-02-04T06:29:35.640Z,15.63
2019-02-04T06:32:05.835Z,14.60
2019-02-04T06:34:35.804Z,15.67
2019-02-04T06:37:05.676Z,13.70
2019-02-04T06:39:35.669Z,14.27
2019-02-04T06:42:05.527Z,13.50
2019-02-04T06:44:35.551Z,14.67
2019-02-04T06:47:05.379Z,14.57
2019-02-04T06:49:35.291Z,13.67
2019-02-04T06:52:05.144Z,15.40
2019-02-04T06:54:35.027Z,13.60
2019-02-04T06:57:04.948Z,13.63
2019-02-04T06:59:35.248Z,12.93
2019-02-04T07:02:05.401Z,14.83
2019-02-04T07:04:35.301Z,12.87
2019-02-04T07:07:05.169Z,12.90
2019-02-04T07:09:35.048Z,14.07
2019-02-04T07:12:05.014Z,13.30
2019-02-04T07:14:35.215Z,12.80
2019-02-04T07:17:05.060Z,13.37
2019-02-04T07:19:34.920Z,9.80
2019-02-04T07:22:04.862Z,9.80
2019-02-04T07:24:42.362Z,9.57
2019-02-04T07:27:06.370Z,9.53
2019-02-04T07:29:36.230Z,9.50
2019-02-04T07:32:06.144Z,9.00
2019-02-04T07:34:36.068Z,9.00
2019-02-04T07:37:06.953Z,10.00
2019-02-04T07:39:36.907Z,10.73
2019-02-04T07:42:07.503Z,10.07
2019-02-04T07:44:37.311Z,11.07
2019-02-04T07:47:08.488Z,10.90
2019-02-04T07:49:38.431Z,9.77
2019-02-04T07:52:08.337Z,10.33
2019-02-04T07:54:38.305Z,9.80
2019-02-04T07:57:08.155Z,8.40
2019-02-04T07:59:38.019Z,9.80
2019-02-04T08:02:07.859Z,8.77
2019-02-04T08:04:37.740Z,7.80
2019-02-04T08:10:43.211Z,9.10
2019-02-04T08:13:13.088Z,9.80
2019-02-04T08:15:44.595Z,6.80
2019-02-04T08:18:14.586Z,8.20
2019-02-04T08:20:44.633Z,7.87
2019-02-04T08:23:14.489Z,10.47
2019-02-04T08:25:44.418Z,8.10
2019-02-04T08:28:14.346Z,11.43
2019-02-04T08:30:44.229Z,11.60
2019-02-04T08:33:14.088Z,12.17
2019-02-04T08:35:44.008Z,11.13
2019-02-04T08:38:13.944Z,12.20
2019-02-04T08:40:43.864Z,10.83
2019-02-04T08:43:13.880Z,10.97
2019-02-04T08:45:43.841Z,11.80
2019-02-04T08:48:13.761Z,11.73
2019-02-04T08:50:43.640Z,12.00
2019-02-04T08:53:13.611Z,14.37
2019-02-04T08:55:43.579Z,12.87
2019-02-04T08:58:13.535Z,11.73
2019-02-04T09:00:43.600Z,12.07
2019-02-04T09:03:13.537Z,12.23
2019-02-04T09:05:43.447Z,12.10
2019-02-04T09:08:16.282Z,11.97
2019-02-04T09:10:46.255Z,11.73
2019-02-04T09:13:16.131Z,14.30
2019-02-04T09:15:46.013Z,12.90
2019-02-04T09:18:15.875Z,14.73
2019-02-04T09:20:45.738Z,12.80
2019-02-04T09:23:15.905Z,14.27
2019-02-04T09:25:45.868Z,12.70
2019-02-04T09:28:15.724Z,13.17
2019-02-04T09:30:45.612Z,13.80
2019-02-04T09:33:15.542Z,13.00
2019-02-04T09:35:45.487Z,14.93
2019-02-04T09:38:16.340Z,12.87
2019-02-04T09:40:46.362Z,14.83
2019-02-04T09:43:16.215Z,13.20
2019-02-04T09:45:46.179Z,13.53
2019-02-04T09:48:20.291Z,15.37
2019-02-04T09:51:03.934Z,14.17
2019-02-04T09:53:33.826Z,15.50
2019-02-04T09:56:05.014Z,15.40
2019-02-04T09:58:34.877Z,11.70
2019-02-04T10:01:04.904Z,17.93
2019-02-04T10:03:34.819Z,17.20
2019-02-04T10:06:04.821Z,15.77
2019-02-04T10:08:34.667Z,17.63
2019-02-04T10:11:04.676Z,16.57
2019-02-04T10:13:34.622Z,16.20
2019-02-04T10:16:04.883Z,16.07
2019-02-04T10:18:34.821Z,17.30
2019-02-04T10:21:04.635Z,16.60
2019-02-04T10:23:34.527Z,17.40
2019-02-04T10:26:04.548Z,14.53
2019-02-04T10:28:34.435Z,17.17
2019-02-04T10:31:04.304Z,18.93
2019-02-04T10:33:34.232Z,15.03
2019-02-04T10:36:04.289Z,16.00
2019-02-04T10:38:34.179Z,17.90
2019-02-04T10:41:04.000Z,17.23
2019-02-04T10:43:34.164Z,17.07
2019-02-04T10:46:04.813Z,15.10
2019-02-04T10:48:35.209Z,40.03
2019-02-04T10:51:05.177Z,15.60
2019-02-04T10:53:35.078Z,19.70
2019-02-04T10:56:05.103Z,16.63
2019-02-04T10:58:35.022Z,17.90
2019-02-04T11:01:04.894Z,15.93
2019-02-04T11:03:34.789Z,17.03
2019-02-04T11:06:04.715Z,15.27
2019-02-04T11:08:34.769Z,17.73
2019-02-04T11:11:04.666Z,14.80
2019-02-04T11:13:34.526Z,17.30
2019-02-04T11:16:04.559Z,16.67
2019-02-04T11:18:34.434Z,13.27
2019-02-04T11:21:04.371Z,17.73
2019-02-04T11:23:34.219Z,12.47
2019-02-04T11:26:04.285Z,16.40
2019-02-04T11:28:34.204Z,15.83
2019-02-04T11:31:07.398Z,17.67
2019-02-04T11:33:37.277Z,15.60
2019-02-04T11:36:07.150Z,14.77
2019-02-04T11:38:37.602Z,15.43
2019-02-04T11:41:07.860Z,13.63
2019-02-04T11:43:37.745Z,13.40
2019-02-04T11:46:07.653Z,13.60
2019-02-04T11:48:37.593Z,14.60
2019-02-04T11:51:09.855Z,14.77
2019-02-04T11:53:38.934Z,12.70
2019-02-04T11:56:08.996Z,13.53
2019-02-04T11:58:38.945Z,12.63
2019-02-04T12:01:08.885Z,14.20
2019-02-04T12:03:38.755Z,14.00
2019-02-04T12:06:08.982Z,14.87
2019-02-04T12:08:38.853Z,13.63
2019-02-04T12:11:17.713Z,12.43
2019-02-04T12:13:47.600Z,14.40
2019-02-04T12:16:17.536Z,13.77
2019-02-04T12:18:47.709Z,14.20
2019-02-04T12:21:21.432Z,12.67
2019-02-04T12:23:49.072Z,12.43
2019-02-04T12:26:18.982Z,12.83
2019-02-04T12:28:48.853Z,12.70
2019-02-04T12:31:18.713Z,12.63
2019-02-04T12:33:48.584Z,11.67
2019-02-04T12:36:18.425Z,11.70
2019-02-04T12:38:48.306Z,11.83
2019-02-04T12:41:18.220Z,10.80
2019-02-04T12:43:48.127Z,12.30
2019-02-04T12:46:18.172Z,10.60
2019-02-04T12:48:48.486Z,11.70
2019-02-04T12:51:18.431Z,12.30
2019-02-04T12:53:48.318Z,14.20
2019-02-04T12:56:18.289Z,10.43
2019-02-04T12:58:55.231Z,11.10
2019-02-04T13:01:19.732Z,11.57
2019-02-04T13:03:49.591Z,10.60
2019-02-04T13:06:19.550Z,10.70
2019-02-04T13:08:49.382Z,10.60
2019-02-04T13:11:19.260Z,9.40
2019-02-04T13:13:49.639Z,11.50
2019-02-04T13:16:19.612Z,10.70
2019-02-04T13:18:49.484Z,10.30
2019-02-04T13:21:19.636Z,10.10
2019-02-04T13:23:49.588Z,11.53
2019-02-04T13:26:19.720Z,11.23
2019-02-04T13:28:49.654Z,10.37
2019-02-04T13:31:19.607Z,10.50
2019-02-04T13:33:49.557Z,10.93
2019-02-04T13:36:19.435Z,12.03
2019-02-04T13:38:49.297Z,12.30
2019-02-04T13:41:19.375Z,11.83
2019-02-04T13:43:49.316Z,12.70
2019-02-04T13:46:19.187Z,12.23
2019-02-04T13:48:49.044Z,10.90
2019-02-04T13:51:18.991Z,12.03
2019-02-04T13:53:48.845Z,10.77
2019-02-04T13:56:18.806Z,9.87
2019-02-04T13:58:48.697Z,10.27
2019-02-04T14:01:18.608Z,9.80
2019-02-04T14:03:48.611Z,10.00
2019-02-04T14:06:18.583Z,11.33
2019-02-04T14:08:48.754Z,10.00
2019-02-04T14:11:18.608Z,10.00
2019-02-04T14:13:48.490Z,9.20
2019-02-04T14:16:18.347Z,10.87
2019-02-04T14:18:48.227Z,9.60
2019-02-04T14:21:18.113Z,10.27
2019-02-04T14:23:47.972Z,10.10
2019-02-04T14:26:17.841Z,11.50
2019-02-04T14:28:47.703Z,10.13
2019-02-04T14:31:17.672Z,10.20
2019-02-04T14:33:47.596Z,10.33
2019-02-04T14:36:17.681Z,10.00
2019-02-04T14:38:47.520Z,9.20
2019-02-04T14:41:17.395Z,9.97
2019-02-04T14:44:17.638Z,9.93
2019-02-04T14:47:27.776Z,9.90
2019-02-04T14:50:23.648Z,9.57
2019-02-04T14:53:11.814Z,11.30
2019-02-04T14:56:03.643Z,10.20
2019-02-04T14:58:42.505Z,9.90
2019-02-04T15:01:52.571Z,9.40
2019-02-04T15:04:37.970Z,9.07
2019-02-04T15:08:10.843Z,8.47
2019-02-04T15:11:11.691Z,8.93
2019-02-04T15:14:13.048Z,11.53
2019-02-04T15:16:48.846Z,9.70
2019-02-04T15:20:05.266Z,9.60
2019-02-04T15:23:25.560Z,8.43
2019-02-04T15:26:37.416Z,9.17
2019-02-04T15:29:46.206Z,8.10
2019-02-04T15:32:37.985Z,7.37
2019-02-04T15:35:39.715Z,6.03
2019-02-04T15:38:48.143Z,6.13
2019-02-04T15:42:32.293Z,6.30
2019-02-04T15:45:41.348Z,7.03
2019-02-04T15:48:17.228Z,5.50
2019-02-04T15:51:00.788Z,6.27
2019-02-04T15:53:30.661Z,6.20
2019-02-04T15:56:02.566Z,6.60
2019-02-04T15:58:32.624Z,6.30
2019-02-04T16:01:04.679Z,7.03
2019-02-04T16:03:34.685Z,6.77
2019-02-04T16:06:04.523Z,5.80
2019-02-04T16:08:34.472Z,6.13
2019-02-04T16:11:04.823Z,6.27
2019-02-04T16:13:34.729Z,7.43
2019-02-04T16:16:04.570Z,6.30
2019-02-04T16:18:34.453Z,6.83
2019-02-04T16:21:04.398Z,7.03
2019-02-04T16:23:34.294Z,6.70
2019-02-04T16:26:05.892Z,6.63
2019-02-04T16:28:35.751Z,6.27
2019-02-04T16:31:05.689Z,6.20
2019-02-04T16:33:35.653Z,6.47
2019-02-04T16:36:05.589Z,6.33
2019-02-04T16:38:35.537Z,6.13
2019-02-04T16:41:05.392Z,7.50
2019-02-04T16:43:35.326Z,6.37
2019-02-04T16:46:05.333Z,6.80
2019-02-04T16:48:35.240Z,5.60
2019-02-04T16:51:11.633Z,6.53
2019-02-04T16:53:36.623Z,7.17
2019-02-04T16:56:06.723Z,7.67
2019-02-04T16:58:36.658Z,7.50
2019-02-04T17:01:08.499Z,8.53
2019-02-04T17:03:38.669Z,9.10
2019-02-04T17:06:09.090Z,8.20
2019-02-04T17:08:38.969Z,9.30
2019-02-04T17:11:08.823Z,7.57
2019-02-04T17:13:38.717Z,6.73
2019-02-04T17:16:08.621Z,5.90
2019-02-04T17:18:38.492Z,6.60
2019-02-04T17:21:08.425Z,8.07
2019-02-04T17:23:38.375Z,6.67
2019-02-04T17:26:08.420Z,6.10
2019-02-04T17:28:40.921Z,6.67
2019-02-04T17:31:10.786Z,6.80
2019-02-04T17:33:40.825Z,6.17
2019-02-04T17:36:10.763Z,5.07
2019-02-04T17:38:40.732Z,4.10
2019-02-04T17:41:10.713Z,6.83
2019-02-04T17:43:40.850Z,6.87
2019-02-04T17:46:10.792Z,8.23
2019-02-04T17:48:40.948Z,7.43
2019-02-04T17:51:11.662Z,4.07
2019-02-04T17:53:41.641Z,5.60
2019-02-04T17:56:11.690Z,6.87
2019-02-04T17:58:41.584Z,6.10
2019-02-04T18:01:11.563Z,8.00
2019-02-04T18:03:41.820Z,7.10
2019-02-04T18:06:11.792Z,7.03
2019-02-04T18:08:41.701Z,5.83
2019-02-04T18:11:11.584Z,6.95
2019-02-04T18:13:41.491Z,7.70
2019-02-04T18:16:11.587Z,7.60
2019-02-04T18:18:41.444Z,6.97
2019-02-04T18:21:11.342Z,6.83
2019-02-04T18:23:46.052Z,7.60
2019-02-04T18:26:12.761Z,7.70
2019-02-04T18:28:43.027Z,7.10
2019-02-04T18:31:12.971Z,8.00
2019-02-04T18:33:42.753Z,6.57
2019-02-04T18:36:12.607Z,7.30
2019-02-04T18:38:42.456Z,8.53
2019-02-04T18:41:12.493Z,7.23
2019-02-04T18:43:42.415Z,8.70
2019-02-04T18:46:12.280Z,9.30
2019-02-04T18:48:43.821Z,9.50
2019-02-04T18:51:13.837Z,9.37
2019-02-04T18:53:43.803Z,9.20
2019-02-04T18:56:13.797Z,10.27
2019-02-04T18:58:43.662Z,8.80
2019-02-04T19:01:13.530Z,8.60
2019-02-04T19:03:43.392Z,9.20
2019-02-04T19:06:13.333Z,6.23
2019-02-04T19:08:43.190Z,8.70
2019-02-04T19:11:13.367Z,8.43
2019-02-04T19:13:43.572Z,8.77
2019-02-04T19:16:13.494Z,6.97
2019-02-04T19:18:43.337Z,9.20
2019-02-04T19:21:13.284Z,6.20
2019-02-04T19:23:43.642Z,8.30
2019-02-04T19:26:13.611Z,7.77
2019-02-04T19:28:44.385Z,8.63
2019-02-04T19:31:18.147Z,8.90
2019-02-04T19:33:48.366Z,9.03
2019-02-04T19:36:18.632Z,9.70
2019-02-04T19:38:48.461Z,8.80
2019-02-04T19:41:18.366Z,8.43
2019-02-04T19:43:48.224Z,7.83
2019-02-04T19:46:18.262Z,8.00
2019-02-04T19:48:48.191Z,9.23
2019-02-04T19:51:18.554Z,10.00
2019-02-04T19:53:48.410Z,8.37
2019-02-04T19:56:18.272Z,8.10
2019-02-04T19:58:48.160Z,8.33
2019-02-04T20:01:18.444Z,8.93
2019-02-04T20:03:48.281Z,8.03
2019-02-04T20:06:18.547Z,8.60
2019-02-04T20:08:48.384Z,8.73
2019-02-04T20:11:18.275Z,8.73
2019-02-04T20:13:48.145Z,8.60
2019-02-04T20:16:18.228Z,8.43
2019-02-04T20:18:48.210Z,5.17
2019-02-04T20:21:18.198Z,8.50
2019-02-04T20:23:48.037Z,8.93
2019-02-04T20:26:18.030Z,5.50
2019-02-04T20:28:47.851Z,6.57
2019-02-04T20:31:18.171Z,6.47
2019-02-04T20:33:49.881Z,6.53
2019-02-04T20:36:19.780Z,7.67
2019-02-04T20:38:49.651Z,6.20
2019-02-04T20:41:19.502Z,8.13
2019-02-04T20:43:49.457Z,7.53
2019-02-04T20:46:19.398Z,6.33
2019-02-04T20:48:49.691Z,7.70
2019-02-04T20:51:19.559Z,7.80
2019-02-04T20:53:49.420Z,5.00
2019-02-04T20:56:19.315Z,5.60
2019-02-04T20:58:49.275Z,6.07
2019-02-04T21:01:19.112Z,3.93
2019-02-04T21:03:49.142Z,5.63
2019-02-04T21:06:19.020Z,5.37
2019-02-04T21:08:49.853Z,8.37
2019-02-04T21:11:19.994Z,5.30
2019-02-04T21:13:49.888Z,7.07
2019-02-04T21:16:19.756Z,5.10
2019-02-04T21:18:49.689Z,7.90
2019-02-04T21:21:19.559Z,7.20
2019-02-04T21:23:49.427Z,7.93
2019-02-04T21:26:19.340Z,8.03
2019-02-04T21:28:49.200Z,6.60
2019-02-04T21:31:19.454Z,7.40
2019-02-04T21:33:49.334Z,7.57
2019-02-04T21:36:19.370Z,8.13
2019-02-04T21:38:49.319Z,8.37
2019-02-04T21:41:21.161Z,8.73
2019-02-04T21:43:50.857Z,7.63
2019-02-04T21:46:20.723Z,7.20
2019-02-04T21:48:50.601Z,7.47
2019-02-04T21:51:20.441Z,7.57
2019-02-04T21:53:50.345Z,7.70
2019-02-04T21:56:20.197Z,7.50
2019-02-04T21:58:50.212Z,6.60
2019-02-04T22:01:20.123Z,6.97
2019-02-04T22:03:50.012Z,6.77
2019-02-04T22:06:22.379Z,6.20
2019-02-04T22:08:52.885Z,6.43
2019-02-04T22:11:22.729Z,4.53
2019-02-04T22:13:52.636Z,6.60
2019-02-04T22:16:22.491Z,6.20
2019-02-04T22:18:52.624Z,6.00
2019-02-04T22:21:22.626Z,5.97
2019-02-04T22:23:52.606Z,5.17
2019-02-04T22:26:22.436Z,6.10
2019-02-04T22:28:52.314Z,7.20
2019-02-04T22:31:22.251Z,6.60
2019-02-04T22:33:54.612Z,6.20
2019-02-04T22:36:24.810Z,6.40
2019-02-04T22:38:54.738Z,4.47
2019-02-04T22:41:24.650Z,5.67
2019-02-04T22:43:54.428Z,6.57
2019-02-04T22:46:24.382Z,5.30
2019-02-04T22:48:54.233Z,7.27
2019-02-04T22:51:24.124Z,6.73
2019-02-04T22:53:53.979Z,5.23
2019-02-04T22:56:24.227Z,6.20
2019-02-04T22:58:54.102Z,6.33
2019-02-04T23:01:55.727Z,4.60
2019-02-04T23:04:26.041Z,6.17
2019-02-04T23:06:55.934Z,6.23
2019-02-04T23:09:25.788Z,5.23
2019-02-04T23:11:55.667Z,6.73
2019-02-04T23:14:25.545Z,6.57
2019-02-04T23:16:55.483Z,6.17
2019-02-04T23:19:25.348Z,7.00
2019-02-04T23:21:55.242Z,7.10
2019-02-04T23:24:25.098Z,6.37
2019-02-04T23:26:54.969Z,6.83
2019-02-04T23:29:24.843Z,7.10
2019-02-04T23:31:55.105Z,7.50
2019-02-04T23:34:24.975Z,5.70
2019-02-04T23:36:54.836Z,5.20
2019-02-04T23:39:24.763Z,6.90
2019-02-04T23:41:57.762Z,6.80
2019-02-04T23:44:26.099Z,5.03
2019-02-04T23:46:56.123Z,7.37
2019-02-04T23:49:26.049Z,6.87
2019-02-04T23:51:55.997Z,6.47
2019-02-04T23:54:25.828Z,5.90
2019-02-04T23:56:55.698Z,5.33
2019-02-04T23:59:25.535Z,6.17
